Time;durP1;ratioP1;P1;durP2;ratioP2;P2;SDS_P1;SDS_P2;PMS_P1;PMS_P2;Temp;Humidity;BMP_temperature;BMP_pressure;BME280_temperature;BME280_humidity;BME280_pressure;Samples;Min_cycle;Max_cycle;Signal;HPM_P1;HPM_P2
2021/10/25 00:00:30;;;;;;;4.00;3.17;;;;;;;;;;5022119;28;20256;-77
2021/10/25 00:02:56;;;;;;;4.78;4.00;;;;;;;;;;5016573;28;20549;-76
2021/10/25 00:05:23;;;;;;;3.55;3.25;;;;;;;;;;5031647;28;20249;-76
2021/10/25 00:07:49;;;;;;;4.35;3.58;;;;;;;;;;5021761;28;20186;-76
2021/10/25 00:10:15;;;;;;;4.30;3.90;;;;;;;;;;5019552;28;20266;-76
2021/10/25 00:12:41;;;;;;;3.88;3.50;;;;;;;;;;5020977;28;20179;-75
2021/10/25 00:15:08;;;;;;;5.03;3.33;;;;;;;;;;5015844;28;20190;-76
2021/10/25 00:17:34;;;;;;;3.42;3.13;;;;;;;;;;5020429;28;20174;-76
2021/10/25 00:20:00;;;;;;;2.65;2.45;;;;;;;;;;5016089;28;20189;-76
2021/10/25 00:22:26;;;;;;;3.60;3.08;;;;;;;;;;5017430;28;20199;-76
2021/10/25 00:24:52;;;;;;;4.85;2.80;;;;;;;;;;5020070;28;20656;-75
2021/10/25 00:27:19;;;;;;;3.45;2.60;;;;;;;;;;5025854;28;20192;-76
2021/10/25 00:29:45;;;;;;;3.58;2.95;;;;;;;;;;5021551;28;20224;-75
2021/10/25 00:32:11;;;;;;;5.05;2.63;;;;;;;;;;5015589;28;20190;-76
2021/10/25 00:34:37;;;;;;;2.80;2.60;;;;;;;;;;5009373;28;20199;-76
2021/10/25 00:37:03;;;;;;;3.50;3.05;;;;;;;;;;5020214;28;20193;-76
2021/10/25 00:39:31;;;;;;;4.97;2.80;;;;;;;;;;5017428;28;20185;-75
2021/10/25 00:41:57;;;;;;;2.80;2.55;;;;;;;;;;5025127;28;20208;-76
2021/10/25 00:44:24;;;;;;;4.80;3.20;;;;;;;;;;4973247;28;1220847;-76
2021/10/25 00:46:50;;;;;;;3.10;2.80;;;;;;;;;;5012198;28;20194;-76
2021/10/25 00:49:16;;;;;;;2.67;2.42;;;;;;;;;;5015481;28;20183;-76
2021/10/25 00:51:43;;;;;;;3.55;2.70;;;;;;;;;;5022336;28;20190;-76
2021/10/25 00:54:09;;;;;;;2.63;2.40;;;;;;;;;;5008987;28;20241;-76
2021/10/25 00:56:38;;;;;;;2.83;2.58;;;;;;;;;;5020810;28;20232;-76
2021/10/25 00:59:04;;;;;;;2.53;2.30;;;;;;;;;;5017687;28;20178;-76
2021/10/25 01:01:30;;;;;;;4.17;2.40;;;;;;;;;;5017099;28;20678;-75
2021/10/25 01:03:56;;;;;;;2.55;2.35;;;;;;;;;;5019853;28;20448;-76
2021/10/25 01:06:22;;;;;;;2.50;2.30;;;;;;;;;;5015846;28;20199;-76
2021/10/25 01:08:49;;;;;;;4.20;3.07;;;;;;;;;;5021713;28;20178;-76
2021/10/25 01:11:15;;;;;;;2.80;2.40;;;;;;;;;;5011203;28;20823;-76
2021/10/25 01:13:41;;;;;;;2.78;2.58;;;;;;;;;;5016077;28;20687;-76
2021/10/25 01:16:08;;;;;;;2.35;2.15;;;;;;;;;;5019321;28;20179;-76
2021/10/25 01:18:34;;;;;;;2.08;1.98;;;;;;;;;;5018032;28;20186;-76
2021/10/25 01:21:01;;;;;;;3.40;2.92;;;;;;;;;;5016492;28;20270;-76
2021/10/25 01:23:27;;;;;;;3.22;2.45;;;;;;;;;;5010730;28;20194;-76
2021/10/25 01:25:54;;;;;;;2.55;2.20;;;;;;;;;;5020155;28;20186;-76
2021/10/25 01:28:20;;;;;;;2.15;1.90;;;;;;;;;;5018181;28;20633;-76
2021/10/25 01:30:46;;;;;;;4.88;2.78;;;;;;;;;;5018971;28;20182;-76
2021/10/25 01:33:15;;;;;;;2.67;2.30;;;;;;;;;;5024938;28;20207;-76
2021/10/25 01:35:41;;;;;;;2.95;2.40;;;;;;;;;;5017192;28;20177;-76
2021/10/25 01:38:07;;;;;;;3.47;2.00;;;;;;;;;;5016115;28;20193;-76
2021/10/25 01:40:33;;;;;;;2.65;2.45;;;;;;;;;;5016619;28;20222;-76
2021/10/25 01:43:00;;;;;;;2.65;2.35;;;;;;;;;;5019764;28;20170;-76
2021/10/25 01:45:26;;;;;;;5.38;2.83;;;;;;;;;;5019372;28;20216;-76
2021/10/25 01:47:54;;;;;;;2.55;2.08;;;;;;;;;;5020682;28;20245;-76
2021/10/25 01:50:20;;;;;;;2.20;2.00;;;;;;;;;;5014183;28;20544;-76
2021/10/25 01:52:47;;;;;;;2.03;1.83;;;;;;;;;;5019464;28;20566;-76
2021/10/25 01:55:13;;;;;;;1.60;1.50;;;;;;;;;;5022332;28;20175;-76
2021/10/25 01:57:39;;;;;;;3.65;2.10;;;;;;;;;;5024903;28;20524;-76
2021/10/25 02:00:06;;;;;;;2.20;2.03;;;;;;;;;;5027398;28;20191;-76
2021/10/25 02:02:31;;;;;;;2.25;2.05;;;;;;;;;;5020066;28;20421;-76
2021/10/25 02:05:01;;;;;;;2.20;1.90;;;;;;;;;;5018972;28;20580;-76
2021/10/25 02:07:27;;;;;;;4.60;2.10;;;;;;;;;;5020701;28;20190;-75
2021/10/25 02:09:53;;;;;;;2.60;1.85;;;;;;;;;;5022499;28;20267;-76
2021/10/25 02:12:19;;;;;;;1.90;1.77;;;;;;;;;;5024393;28;20228;-76
2021/10/25 02:14:45;;;;;;;2.03;1.90;;;;;;;;;;5020782;28;20805;-75
2021/10/25 02:17:11;;;;;;;2.95;2.30;;;;;;;;;;5032673;28;20429;-76
2021/10/25 02:19:37;;;;;;;2.80;2.47;;;;;;;;;;5019115;28;20194;-76
2021/10/25 02:22:03;;;;;;;2.60;2.35;;;;;;;;;;5020947;28;20564;-77
2021/10/25 02:24:30;;;;;;;2.90;2.25;;;;;;;;;;5023718;28;20393;-76
2021/10/25 02:26:57;;;;;;;2.13;1.92;;;;;;;;;;5008562;28;20180;-76
2021/10/25 02:29:23;;;;;;;2.33;2.13;;;;;;;;;;5019387;28;20234;-76
2021/10/25 02:31:49;;;;;;;2.72;2.40;;;;;;;;;;5018877;28;20183;-76
2021/10/25 02:34:16;;;;;;;3.67;2.00;;;;;;;;;;5021681;28;20202;-77
2021/10/25 02:36:42;;;;;;;3.40;2.10;;;;;;;;;;5021402;28;20186;-76
2021/10/25 02:39:08;;;;;;;3.08;2.25;;;;;;;;;;5028097;28;20183;-76
2021/10/25 02:41:35;;;;;;;3.40;1.80;;;;;;;;;;5020763;28;20207;-76
2021/10/25 02:44:01;;;;;;;8.45;1.95;;;;;;;;;;5015663;28;20182;-76
2021/10/25 02:46:26;;;;;;;2.40;2.20;;;;;;;;;;5018847;28;20231;-76
2021/10/25 02:48:52;;;;;;;2.57;2.07;;;;;;;;;;5021594;28;20473;-76
2021/10/25 02:51:19;;;;;;;2.33;2.10;;;;;;;;;;5024088;28;20910;-76
2021/10/25 02:53:45;;;;;;;2.67;2.05;;;;;;;;;;5015460;28;20247;-76
2021/10/25 02:56:11;;;;;;;1.85;1.75;;;;;;;;;;5016999;28;20190;-76
2021/10/25 02:58:37;;;;;;;3.88;2.33;;;;;;;;;;5017954;28;20194;-76
2021/10/25 03:01:03;;;;;;;2.42;1.70;;;;;;;;;;5021487;28;20283;-77
2021/10/25 03:03:29;;;;;;;2.63;2.42;;;;;;;;;;5023553;28;20189;-78
2021/10/25 03:05:55;;;;;;;4.53;2.30;;;;;;;;;;5018230;28;20179;-78
2021/10/25 03:08:22;;;;;;;4.72;1.90;;;;;;;;;;5033745;28;20428;-78
2021/10/25 03:10:48;;;;;;;2.85;2.25;;;;;;;;;;5018767;28;20269;-79
2021/10/25 03:13:14;;;;;;;2.78;2.20;;;;;;;;;;5018997;28;20182;-78
2021/10/25 03:15:40;;;;;;;1.98;1.83;;;;;;;;;;5018696;28;20206;-78
2021/10/25 03:18:06;;;;;;;3.25;2.30;;;;;;;;;;5026996;28;20178;-79
2021/10/25 03:20:33;;;;;;;3.88;2.20;;;;;;;;;;5018875;28;20220;-78
2021/10/25 03:22:59;;;;;;;3.28;1.95;;;;;;;;;;5018224;28;20181;-79
2021/10/25 03:25:25;;;;;;;2.57;2.03;;;;;;;;;;5018719;28;20290;-78
2021/10/25 03:27:51;;;;;;;4.20;2.33;;;;;;;;;;5021299;28;20551;-78
2021/10/25 03:30:18;;;;;;;2.35;2.15;;;;;;;;;;5026784;28;20182;-78
2021/10/25 03:32:44;;;;;;;3.40;2.22;;;;;;;;;;5018558;28;20170;-79
2021/10/25 03:35:10;;;;;;;5.28;2.28;;;;;;;;;;5017519;28;20166;-78
2021/10/25 03:37:38;;;;;;;2.57;2.37;;;;;;;;;;5017301;28;20179;-78
2021/10/25 03:40:05;;;;;;;3.92;2.30;;;;;;;;;;5021618;28;20452;-78
2021/10/25 03:42:37;;;;;;;2.60;2.40;;;;;;;;;;5017871;28;20386;-78
2021/10/25 03:47:52;;;;;;;3.13;2.50;;;;;;;;;;5018660;28;20269;-77
2021/10/25 03:50:21;;;;;;;3.58;2.60;;;;;;;;;;5017825;28;20209;-77
2021/10/25 03:52:55;;;;;;;3.42;2.58;;;;;;;;;;5021781;28;20213;-77
2021/10/25 04:28:12;;;;;;;4.47;3.40;;;;;;;;;;4962476;28;20666;-76
2021/10/25 04:30:38;;;;;;;3.33;3.03;;;;;;;;;;4961976;28;20200;-76
2021/10/25 04:33:05;;;;;;;3.28;2.88;;;;;;;;;;4945534;28;20193;-76
2021/10/25 04:35:31;;;;;;;3.95;3.00;;;;;;;;;;4948101;29;20192;-76
2021/10/25 04:37:58;;;;;;;3.50;2.88;;;;;;;;;;4962597;28;20264;-75
2021/10/25 04:40:24;;;;;;;3.45;2.85;;;;;;;;;;4962401;28;20196;-75
2021/10/25 04:42:51;;;;;;;5.13;2.75;;;;;;;;;;4957992;28;20184;-76
2021/10/25 04:45:19;;;;;;;4.25;3.30;;;;;;;;;;4954043;28;20380;-76
2021/10/25 04:47:45;;;;;;;4.05;2.80;;;;;;;;;;4965131;28;20472;-75
2021/10/25 04:50:11;;;;;;;3.80;3.42;;;;;;;;;;4956802;28;20192;-76
2021/10/25 04:52:37;;;;;;;3.22;2.92;;;;;;;;;;4964044;28;20195;-75
2021/10/25 04:55:03;;;;;;;3.85;2.97;;;;;;;;;;4979010;28;20207;-76
2021/10/25 04:57:30;;;;;;;3.83;3.03;;;;;;;;;;4975971;28;20187;-76
2021/10/25 04:59:56;;;;;;;3.35;2.92;;;;;;;;;;5013797;28;20191;-76
2021/10/25 05:02:22;;;;;;;5.25;3.00;;;;;;;;;;5017123;28;20198;-75
2021/10/25 05:04:48;;;;;;;4.10;3.05;;;;;;;;;;5016336;28;20191;-75
2021/10/25 05:07:14;;;;;;;3.65;3.00;;;;;;;;;;5018733;28;20202;-75
2021/10/25 05:09:40;;;;;;;4.40;3.20;;;;;;;;;;5017328;28;20234;-75
2021/10/25 05:12:13;;;;;;;6.07;2.80;;;;;;;;;;5016343;28;20186;-76
2021/10/25 05:14:38;;;;;;;3.20;2.95;;;;;;;;;;5021499;28;20745;-76
2021/10/25 05:17:04;;;;;;;5.63;3.57;;;;;;;;;;5020233;28;20308;-76
2021/10/25 05:19:31;;;;;;;5.67;3.40;;;;;;;;;;5019415;28;20476;-76
2021/10/25 05:21:57;;;;;;;4.30;3.60;;;;;;;;;;5023274;28;20469;-76
2021/10/25 05:24:23;;;;;;;3.28;2.97;;;;;;;;;;5020746;28;20228;-76
2021/10/25 05:26:49;;;;;;;8.95;3.85;;;;;;;;;;5017449;28;20190;-76
2021/10/25 05:29:15;;;;;;;5.20;3.60;;;;;;;;;;5024204;28;20206;-75
2021/10/25 05:31:42;;;;;;;5.30;3.23;;;;;;;;;;5019888;28;20278;-76
2021/10/25 05:34:09;;;;;;;5.43;3.90;;;;;;;;;;5023118;28;20433;-76
2021/10/25 05:36:35;;;;;;;3.83;3.42;;;;;;;;;;5020009;28;20182;-76
2021/10/25 05:39:02;;;;;;;5.40;3.30;;;;;;;;;;5019927;28;20201;-75
2021/10/25 05:41:29;;;;;;;4.35;4.00;;;;;;;;;;5035983;28;20259;-75
2021/10/25 05:43:55;;;;;;;3.88;3.20;;;;;;;;;;5019600;28;20270;-75
2021/10/25 05:46:21;;;;;;;4.57;3.60;;;;;;;;;;5020319;28;20698;-77
2021/10/25 05:48:47;;;;;;;5.40;3.40;;;;;;;;;;5023240;28;20558;-76
2021/10/25 05:51:13;;;;;;;7.00;4.15;;;;;;;;;;5028956;28;29141;-76
2021/10/25 05:53:39;;;;;;;4.50;3.88;;;;;;;;;;5021202;28;20186;-76
2021/10/25 05:56:05;;;;;;;6.03;4.22;;;;;;;;;;5019275;28;20189;-76
2021/10/25 05:58:31;;;;;;;13.40;4.40;;;;;;;;;;5019655;28;20191;-77
2021/10/25 06:01:01;;;;;;;5.88;3.97;;;;;;;;;;5024393;28;20461;-76
2021/10/25 06:03:29;;;;;;;9.02;4.50;;;;;;;;;;5018472;28;20182;-76
2021/10/25 06:05:56;;;;;;;9.40;3.92;;;;;;;;;;5019529;28;20198;-76
2021/10/25 06:08:22;;;;;;;4.25;3.65;;;;;;;;;;5017867;28;20179;-76
2021/10/25 06:10:48;;;;;;;5.25;3.88;;;;;;;;;;5015185;28;20261;-76
2021/10/25 06:13:37;;;;;;;7.28;4.63;;;;;;;;;;5021990;28;20183;-76
2021/10/25 06:16:13;;;;;;;4.30;3.90;;;;;;;;;;5023196;28;20213;-76
2021/10/25 06:18:39;;;;;;;4.60;4.00;;;;;;;;;;5020078;28;20186;-76
2021/10/25 06:21:06;;;;;;;6.57;3.95;;;;;;;;;;5028176;28;20205;-77
2021/10/25 06:23:33;;;;;;;3.95;3.55;;;;;;;;;;5020153;28;20171;-76
2021/10/25 06:25:59;;;;;;;4.95;3.53;;;;;;;;;;5023196;28;20174;-76
2021/10/25 06:28:25;;;;;;;5.03;4.22;;;;;;;;;;5020557;28;20187;-76
2021/10/25 06:31:03;;;;;;;5.53;3.90;;;;;;;;;;5022834;28;20197;-76
2021/10/25 06:33:30;;;;;;;8.63;3.65;;;;;;;;;;5022757;28;20194;-76
2021/10/25 06:36:04;;;;;;;5.97;4.10;;;;;;;;;;5028063;28;20198;-76
2021/10/25 06:38:57;;;;;;;5.25;4.00;;;;;;;;;;5033917;28;20167;-75
2021/10/25 06:41:20;;;;;;;6.25;4.53;;;;;;;;;;5014579;28;20206;-76
2021/10/25 06:43:47;;;;;;;5.97;4.30;;;;;;;;;;5018476;28;20199;-77
2021/10/25 06:46:14;;;;;;;7.13;4.95;;;;;;;;;;5021372;28;20214;-76
2021/10/25 06:48:40;;;;;;;9.90;4.55;;;;;;;;;;5020313;28;20193;-76
2021/10/25 06:51:06;;;;;;;6.03;4.53;;;;;;;;;;5018307;28;20205;-77
2021/10/25 06:53:32;;;;;;;7.05;4.22;;;;;;;;;;5034882;28;20237;-76
2021/10/25 06:55:58;;;;;;;9.73;4.90;;;;;;;;;;5017902;28;20209;-78
2021/10/25 06:58:24;;;;;;;6.50;4.85;;;;;;;;;;5019408;28;20521;-76
2021/10/25 07:00:50;;;;;;;6.15;5.25;;;;;;;;;;5022472;28;20212;-77
2021/10/25 07:03:16;;;;;;;8.77;5.35;;;;;;;;;;5018579;28;20194;-77
2021/10/25 07:05:42;;;;;;;9.30;6.00;;;;;;;;;;5022996;28;20187;-76
2021/10/25 07:08:10;;;;;;;8.77;5.53;;;;;;;;;;5017945;28;20178;-77
2021/10/25 07:10:38;;;;;;;8.05;5.57;;;;;;;;;;5018681;28;20182;-77
2021/10/25 07:13:04;;;;;;;12.30;5.35;;;;;;;;;;5020806;28;20242;-77
2021/10/25 07:15:32;;;;;;;12.45;7.63;;;;;;;;;;5019484;28;20447;-77
2021/10/25 07:18:11;;;;;;;16.40;9.43;;;;;;;;;;5017535;28;20180;-77
2021/10/25 08:11:39;;;;;;;14.38;7.68;;;;;;;;;;5018240;28;20508;-78
2021/10/25 08:14:08;;;;;;;20.73;7.95;;;;;;;;;;5016849;28;20514;-77
2021/10/25 08:16:55;;;;;;;13.75;6.80;;;;;;;;;;5020886;28;20205;-78
2021/10/25 08:19:25;;;;;;;14.45;7.50;;;;;;;;;;5018916;28;20262;-78
2021/10/25 08:21:57;;;;;;;10.25;8.13;;;;;;;;;;5019742;28;20229;-78
2021/10/25 08:24:24;;;;;;;10.82;7.30;;;;;;;;;;5016136;28;20190;-78
2021/10/25 08:26:50;;;;;;;13.80;6.85;;;;;;;;;;5017412;28;20182;-78
2021/10/25 08:29:18;;;;;;;13.27;8.38;;;;;;;;;;5016445;28;20200;-78
2021/10/25 08:31:47;;;;;;;14.05;9.32;;;;;;;;;;5016465;28;20182;-78
2021/10/25 08:42:11;;;;;;;17.15;9.43;;;;;;;;;;5014870;28;20213;-78
2021/10/25 08:44:39;;;;;;;20.58;11.65;;;;;;;;;;5018039;28;20293;-78
2021/10/25 08:47:05;;;;;;;20.98;11.68;;;;;;;;;;5020798;28;20252;-78
2021/10/25 08:49:31;;;;;;;14.70;9.00;;;;;;;;;;5017185;28;20183;-78
2021/10/25 08:51:59;;;;;;;12.73;9.60;;;;;;;;;;5021245;28;20178;-78
2021/10/25 08:54:25;;;;;;;14.90;9.68;;;;;;;;;;5034322;28;20275;-78
2021/10/25 08:56:51;;;;;;;11.40;7.83;;;;;;;;;;5021667;28;20186;-79
2021/10/25 08:59:17;;;;;;;14.50;8.60;;;;;;;;;;5020334;28;20917;-78
2021/10/25 09:01:44;;;;;;;13.63;8.05;;;;;;;;;;5026135;28;20487;-79
2021/10/25 09:04:11;;;;;;;12.10;7.20;;;;;;;;;;5022922;28;20427;-78
2021/10/25 09:06:51;;;;;;;13.80;8.48;;;;;;;;;;5025643;28;20229;-78
2021/10/25 09:09:17;;;;;;;15.55;8.25;;;;;;;;;;5029314;28;20245;-79
2021/10/25 09:11:59;;;;;;;12.45;8.30;;;;;;;;;;5022096;28;20186;-79
2021/10/25 09:14:25;;;;;;;13.40;8.13;;;;;;;;;;5020325;28;20262;-79
2021/10/25 09:16:56;;;;;;;14.18;10.23;;;;;;;;;;5024531;28;20204;-79
2021/10/25 09:19:22;;;;;;;15.85;11.60;;;;;;;;;;5021345;28;20186;-81
2021/10/25 09:21:49;;;;;;;17.27;12.82;;;;;;;;;;5023445;28;20280;-79
2021/10/25 09:24:19;;;;;;;11.02;8.43;;;;;;;;;;5029361;28;20285;-79
2021/10/25 09:26:53;;;;;;;11.90;7.78;;;;;;;;;;5025226;28;20175;-80
2021/10/25 09:29:24;;;;;;;9.70;6.88;;;;;;;;;;5019545;28;20183;-79
2021/10/25 09:31:54;;;;;;;10.15;7.20;;;;;;;;;;5019646;28;20190;-78
2021/10/25 09:34:22;;;;;;;13.07;7.63;;;;;;;;;;5023704;28;20183;-79
2021/10/25 09:36:53;;;;;;;8.93;7.20;;;;;;;;;;5024592;28;20663;-79
2021/10/25 09:39:38;;;;;;;10.82;7.03;;;;;;;;;;5029211;28;20193;-81
2021/10/25 09:50:18;;;;;;;9.68;6.85;;;;;;;;;;5019149;28;20190;-80
2021/10/25 09:52:44;;;;;;;7.22;6.50;;;;;;;;;;5023447;28;20201;-79
2021/10/25 09:55:12;;;;;;;9.23;6.20;;;;;;;;;;5021811;28;20188;-80
2021/10/25 09:57:42;;;;;;;10.18;6.57;;;;;;;;;;5021207;28;20252;-80
2021/10/25 10:00:09;;;;;;;6.68;5.88;;;;;;;;;;5019244;28;20170;-79
2021/10/25 10:02:36;;;;;;;8.93;6.55;;;;;;;;;;5021175;28;20237;-79
2021/10/25 10:05:04;;;;;;;8.05;6.65;;;;;;;;;;5022410;28;20186;-79
2021/10/25 10:07:30;;;;;;;7.20;6.40;;;;;;;;;;5020748;28;20209;-81
2021/10/25 10:09:56;;;;;;;9.27;6.40;;;;;;;;;;5022588;28;20194;-81
2021/10/25 10:12:24;;;;;;;10.57;6.05;;;;;;;;;;5018850;28;20734;-80
2021/10/25 10:14:54;;;;;;;12.45;6.15;;;;;;;;;;5024311;28;20201;-80
2021/10/25 10:17:42;;;;;;;7.40;6.70;;;;;;;;;;5019075;28;20183;-79
2021/10/25 10:20:11;;;;;;;8.27;6.45;;;;;;;;;;5024785;28;20205;-78
2021/10/25 10:22:39;;;;;;;9.38;6.97;;;;;;;;;;5019454;28;20218;-80
2021/10/25 10:25:07;;;;;;;7.03;6.05;;;;;;;;;;5022157;28;20632;-80
2021/10/25 10:27:33;;;;;;;8.52;7.15;;;;;;;;;;5022787;28;20182;-80
2021/10/25 10:30:00;;;;;;;8.03;6.20;;;;;;;;;;5028047;28;20178;-79
2021/10/25 10:32:27;;;;;;;7.18;6.45;;;;;;;;;;5022823;28;20425;-79
2021/10/25 10:34:54;;;;;;;12.43;7.03;;;;;;;;;;5022722;28;20289;-79
2021/10/25 10:37:20;;;;;;;9.30;8.15;;;;;;;;;;5022910;28;20221;-79
2021/10/25 10:40:07;;;;;;;6.63;5.97;;;;;;;;;;5022579;28;20182;-79
2021/10/25 10:42:34;;;;;;;7.05;6.35;;;;;;;;;;5034402;28;20198;-80
2021/10/25 10:45:03;;;;;;;7.43;5.85;;;;;;;;;;5019062;28;20229;-79
2021/10/25 10:47:37;;;;;;;7.10;6.40;;;;;;;;;;5018597;28;20172;-78
2021/10/25 10:50:04;;;;;;;10.13;6.80;;;;;;;;;;5017940;28;20209;-79
2021/10/25 10:52:33;;;;;;;7.70;6.07;;;;;;;;;;5018355;28;20183;-79
2021/10/25 10:55:18;;;;;;;9.63;6.80;;;;;;;;;;5023039;28;20170;-79
2021/10/25 10:58:12;;;;;;;9.40;6.15;;;;;;;;;;5020193;28;20197;-79
2021/10/25 11:00:40;;;;;;;6.93;6.20;;;;;;;;;;5020435;28;20179;-79
2021/10/25 11:03:09;;;;;;;9.02;5.85;;;;;;;;;;5018575;28;20182;-78
2021/10/25 11:05:37;;;;;;;9.20;5.57;;;;;;;;;;5031295;28;20270;-79
2021/10/25 11:08:11;;;;;;;9.88;7.07;;;;;;;;;;5011173;28;20174;-78
2021/10/25 11:10:38;;;;;;;18.00;7.38;;;;;;;;;;5017321;28;20183;-78
2021/10/25 11:13:18;;;;;;;11.95;10.40;;;;;;;;;;5021936;28;20491;-79
2021/10/25 11:16:07;;;;;;;11.13;7.97;;;;;;;;;;5017146;28;20209;-78
2021/10/25 11:18:34;;;;;;;12.77;7.18;;;;;;;;;;5018980;28;20270;-78
2021/10/25 11:21:09;;;;;;;11.98;8.40;;;;;;;;;;5018504;28;20260;-77
2021/10/25 11:23:40;;;;;;;7.05;5.68;;;;;;;;;;5019905;28;20629;-79
2021/10/25 11:26:10;;;;;;;9.45;6.18;;;;;;;;;;5019849;28;20178;-78
2021/10/25 11:28:36;;;;;;;7.15;5.72;;;;;;;;;;5023137;28;20185;-78
2021/10/25 11:31:03;;;;;;;10.50;5.90;;;;;;;;;;5022214;28;20190;-78
2021/10/25 11:33:29;;;;;;;8.70;6.50;;;;;;;;;;5018432;28;20453;-78
2021/10/25 11:35:56;;;;;;;6.53;5.93;;;;;;;;;;5018394;28;20178;-78
2021/10/25 11:38:22;;;;;;;12.48;5.95;;;;;;;;;;5014065;28;20174;-78
2021/10/25 11:40:48;;;;;;;8.15;6.78;;;;;;;;;;5015983;28;20204;-78
2021/10/25 11:43:14;;;;;;;7.73;6.40;;;;;;;;;;5020438;28;20181;-78
2021/10/25 11:45:41;;;;;;;7.07;5.70;;;;;;;;;;5022651;28;20552;-78
2021/10/25 11:48:07;;;;;;;7.55;6.45;;;;;;;;;;5027192;28;20174;-78
2021/10/25 11:50:33;;;;;;;8.65;6.53;;;;;;;;;;5018207;28;20170;-78
2021/10/25 11:53:05;;;;;;;7.82;5.90;;;;;;;;;;5017645;28;20186;-77
2021/10/25 11:55:32;;;;;;;12.50;6.50;;;;;;;;;;5017017;28;20195;-78
2021/10/25 11:57:59;;;;;;;10.82;6.10;;;;;;;;;;5020669;28;20183;-77
2021/10/25 12:00:26;;;;;;;8.85;6.45;;;;;;;;;;5017401;28;20179;-77
2021/10/25 12:02:55;;;;;;;12.60;6.80;;;;;;;;;;5018440;28;20213;-78
2021/10/25 12:05:25;;;;;;;9.05;6.68;;;;;;;;;;5013454;28;20202;-78
2021/10/25 12:07:52;;;;;;;9.77;6.70;;;;;;;;;;5015146;28;20187;-78
2021/10/25 12:10:21;;;;;;;9.25;5.72;;;;;;;;;;5020496;28;20519;-78
2021/10/25 12:12:50;;;;;;;8.55;6.03;;;;;;;;;;5022489;28;20186;-77
2021/10/25 12:15:17;;;;;;;8.90;6.43;;;;;;;;;;5016967;28;20192;-77
2021/10/25 12:17:44;;;;;;;8.88;5.55;;;;;;;;;;5018694;28;20180;-77
2021/10/25 12:20:11;;;;;;;9.20;5.63;;;;;;;;;;5020554;28;20195;-77
2021/10/25 12:22:38;;;;;;;7.05;6.25;;;;;;;;;;5014974;28;20209;-77
2021/10/25 12:25:04;;;;;;;11.10;5.65;;;;;;;;;;5021348;28;20173;-78
2021/10/25 12:27:36;;;;;;;7.60;5.07;;;;;;;;;;5017883;28;20195;-76
2021/10/25 12:30:04;;;;;;;6.80;4.82;;;;;;;;;;5026150;28;20686;-77
2021/10/25 12:32:30;;;;;;;9.48;5.30;;;;;;;;;;5033044;28;20190;-76
2021/10/25 12:34:57;;;;;;;9.07;5.20;;;;;;;;;;5016476;28;20189;-77
2021/10/25 12:37:24;;;;;;;8.32;4.90;;;;;;;;;;5018493;28;20198;-77
2021/10/25 12:39:51;;;;;;;5.00;4.43;;;;;;;;;;5020206;28;20202;-76
2021/10/25 12:42:17;;;;;;;6.65;4.00;;;;;;;;;;5024776;28;20203;-76
2021/10/25 12:44:46;;;;;;;4.50;3.45;;;;;;;;;;5021776;28;20235;-76
2021/10/25 12:47:14;;;;;;;5.25;3.80;;;;;;;;;;5016361;28;20190;-78
2021/10/25 12:49:45;;;;;;;5.80;3.80;;;;;;;;;;5016383;28;20268;-77
2021/10/25 12:52:11;;;;;;;4.40;4.00;;;;;;;;;;5020218;28;20182;-76
2021/10/25 12:54:38;;;;;;;4.20;3.58;;;;;;;;;;5018294;28;20268;-77
2021/10/25 12:57:19;;;;;;;5.50;3.13;;;;;;;;;;5015465;28;20181;-77
2021/10/25 13:00:09;;;;;;;5.35;3.20;;;;;;;;;;5037324;28;20178;-77
2021/10/25 13:02:41;;;;;;;5.25;3.30;;;;;;;;;;5032585;28;20272;-77
2021/10/25 13:05:08;;;;;;;8.40;5.93;;;;;;;;;;5018719;28;20187;-76
2021/10/25 13:07:35;;;;;;;8.07;6.03;;;;;;;;;;5010776;28;20187;-77
2021/10/25 13:10:01;;;;;;;4.68;4.13;;;;;;;;;;5019618;28;20184;-78
2021/10/25 13:12:27;;;;;;;5.53;2.33;;;;;;;;;;5015332;28;20198;-77
2021/10/25 13:14:55;;;;;;;6.13;3.50;;;;;;;;;;5021822;28;20227;-78
2021/10/25 13:17:21;;;;;;;5.72;3.10;;;;;;;;;;5017081;28;20219;-76
2021/10/25 13:19:47;;;;;;;6.03;4.85;;;;;;;;;;5015750;28;20195;-77
2021/10/25 13:22:13;;;;;;;6.15;3.60;;;;;;;;;;5019004;28;20199;-77
2021/10/25 13:24:39;;;;;;;3.92;2.42;;;;;;;;;;5021562;28;20632;-76
2021/10/25 13:27:06;;;;;;;7.43;2.78;;;;;;;;;;5026643;28;20690;-77
2021/10/25 13:29:32;;;;;;;4.95;3.15;;;;;;;;;;5017374;28;20200;-77
2021/10/25 13:31:58;;;;;;;4.07;2.83;;;;;;;;;;5016575;28;20626;-77
2021/10/25 13:34:24;;;;;;;3.00;2.20;;;;;;;;;;5017432;28;20198;-77
2021/10/25 13:36:50;;;;;;;4.10;2.53;;;;;;;;;;5019963;28;20455;-77
2021/10/25 13:39:18;;;;;;;3.20;2.47;;;;;;;;;;5016495;28;20440;-77
2021/10/25 13:41:44;;;;;;;4.00;2.55;;;;;;;;;;5025232;28;20280;-77
2021/10/25 13:44:11;;;;;;;6.38;3.05;;;;;;;;;;5019314;28;20182;-77
2021/10/25 13:46:37;;;;;;;7.07;2.83;;;;;;;;;;5019585;28;20189;-77
2021/10/25 13:49:05;;;;;;;6.05;2.80;;;;;;;;;;5013886;28;20185;-76
2021/10/25 13:51:31;;;;;;;8.82;3.63;;;;;;;;;;5019575;28;20202;-77
2021/10/25 13:53:57;;;;;;;4.47;3.70;;;;;;;;;;5016463;28;20189;-77
2021/10/25 13:56:23;;;;;;;9.23;3.10;;;;;;;;;;5020690;28;20463;-77
2021/10/25 13:58:49;;;;;;;4.93;2.13;;;;;;;;;;5019475;28;20420;-77
2021/10/25 14:01:15;;;;;;;4.00;2.70;;;;;;;;;;5021997;28;20835;-77
2021/10/25 14:03:43;;;;;;;5.37;2.30;;;;;;;;;;5024702;28;20445;-79
2021/10/25 14:06:11;;;;;;;5.43;1.80;;;;;;;;;;5028322;28;20416;-77
2021/10/25 14:08:37;;;;;;;3.92;1.60;;;;;;;;;;5035667;28;20461;-78
2021/10/25 14:11:03;;;;;;;2.95;1.90;;;;;;;;;;5018852;28;20549;-77
2021/10/25 14:13:39;;;;;;;3.55;2.30;;;;;;;;;;5023203;28;20275;-78
2021/10/25 14:18:47;;;;;;;2.70;2.00;;;;;;;;;;5021997;28;20202;-77
2021/10/25 14:21:18;;;;;;;4.25;1.67;;;;;;;;;;5018688;28;20195;-78
2021/10/25 14:23:45;;;;;;;3.78;2.00;;;;;;;;;;5021362;28;20175;-77
2021/10/25 14:26:11;;;;;;;5.85;1.83;;;;;;;;;;5017382;28;20178;-78
2021/10/25 14:28:37;;;;;;;3.00;2.28;;;;;;;;;;5018920;28;20183;-77
2021/10/25 14:31:05;;;;;;;4.97;2.10;;;;;;;;;;5013228;28;20246;-77
2021/10/25 14:33:31;;;;;;;4.55;2.10;;;;;;;;;;5019341;28;20253;-78
2021/10/25 14:35:57;;;;;;;3.50;2.78;;;;;;;;;;5019286;28;20198;-77
2021/10/25 14:38:51;;;;;;;6.18;2.80;;;;;;;;;;5019112;28;20393;-77
2021/10/25 14:43:56;;;;;;;3.28;1.70;;;;;;;;;;5018056;28;20262;-77
2021/10/25 14:57:25;;;;;;;4.80;2.40;;;;;;;;;;4941057;29;20189;-77
2021/10/25 14:59:52;;;;;;;3.25;2.20;;;;;;;;;;4939323;29;20291;-77
2021/10/25 15:02:19;;;;;;;5.40;2.38;;;;;;;;;;4935530;29;20209;-77
2021/10/25 15:04:46;;;;;;;3.22;1.92;;;;;;;;;;4935273;29;20714;-77
2021/10/25 15:07:18;;;;;;;3.30;1.90;;;;;;;;;;4939003;29;20197;-77
2021/10/25 15:09:47;;;;;;;3.22;2.28;;;;;;;;;;4938432;29;20437;-77
2021/10/25 15:12:13;;;;;;;8.05;2.10;;;;;;;;;;4936799;29;20175;-77
2021/10/25 15:14:43;;;;;;;2.40;1.77;;;;;;;;;;4937640;29;20228;-77
2021/10/25 15:17:09;;;;;;;5.68;1.80;;;;;;;;;;4935350;29;20195;-77
2021/10/25 15:19:36;;;;;;;3.28;2.20;;;;;;;;;;4935682;29;20265;-77
2021/10/25 15:22:09;;;;;;;5.47;2.13;;;;;;;;;;4939454;29;20220;-77
2021/10/25 15:24:40;;;;;;;2.20;1.52;;;;;;;;;;4936753;29;20219;-77
2021/10/25 15:27:14;;;;;;;5.10;1.70;;;;;;;;;;4970585;28;20184;-77
2021/10/25 15:29:40;;;;;;;4.20;2.08;;;;;;;;;;4981013;28;20181;-77
2021/10/25 15:32:06;;;;;;;3.28;1.63;;;;;;;;;;4975294;28;20216;-77
2021/10/25 15:34:32;;;;;;;4.10;2.08;;;;;;;;;;4986803;28;20196;-77
2021/10/25 15:36:58;;;;;;;4.50;2.08;;;;;;;;;;5018046;28;20222;-77
2021/10/25 15:39:24;;;;;;;2.63;1.70;;;;;;;;;;5012761;28;20184;-77
2021/10/25 15:41:51;;;;;;;3.28;2.15;;;;;;;;;;5018697;28;20201;-77
2021/10/25 15:44:17;;;;;;;4.70;2.20;;;;;;;;;;5015819;28;20215;-77
2021/10/25 15:46:43;;;;;;;3.60;1.95;;;;;;;;;;5016829;28;20183;-77
2021/10/25 15:49:09;;;;;;;6.80;2.53;;;;;;;;;;5021381;28;20182;-77
2021/10/25 15:51:36;;;;;;;5.63;3.47;;;;;;;;;;5018273;28;20469;-77
2021/10/25 15:54:03;;;;;;;2.85;1.92;;;;;;;;;;5014732;28;20511;-77
2021/10/25 15:56:29;;;;;;;7.45;2.05;;;;;;;;;;5017523;28;20179;-77
2021/10/25 15:58:55;;;;;;;3.53;1.90;;;;;;;;;;5018110;28;20196;-77
2021/10/25 16:01:21;;;;;;;2.80;2.22;;;;;;;;;;5018754;28;20213;-76
2021/10/25 16:03:47;;;;;;;4.13;2.00;;;;;;;;;;5020045;28;20189;-76
2021/10/25 16:06:13;;;;;;;6.77;2.10;;;;;;;;;;5017477;28;20405;-77
2021/10/25 16:08:39;;;;;;;4.50;1.95;;;;;;;;;;5022417;28;20492;-77
2021/10/25 16:11:06;;;;;;;12.30;2.77;;;;;;;;;;5021576;28;20234;-77
2021/10/25 16:13:32;;;;;;;4.10;2.20;;;;;;;;;;5020697;28;20967;-76
2021/10/25 16:16:00;;;;;;;4.70;2.23;;;;;;;;;;5022315;28;20178;-77
2021/10/25 16:18:26;;;;;;;5.10;2.03;;;;;;;;;;5017071;28;20470;-77
2021/10/25 16:20:52;;;;;;;5.78;2.30;;;;;;;;;;5018620;28;20185;-77
2021/10/25 16:23:19;;;;;;;3.80;2.00;;;;;;;;;;5019035;28;20255;-77
2021/10/25 16:25:46;;;;;;;2.95;1.90;;;;;;;;;;5027075;28;20338;-76
2021/10/25 16:28:13;;;;;;;6.45;2.55;;;;;;;;;;5020379;28;20193;-77
2021/10/25 16:30:39;;;;;;;7.43;2.58;;;;;;;;;;5017373;28;20185;-77
2021/10/25 16:33:05;;;;;;;8.15;2.58;;;;;;;;;;5017252;28;20177;-77
2021/10/25 16:35:31;;;;;;;6.68;3.65;;;;;;;;;;5017685;28;20183;-76
2021/10/25 16:37:58;;;;;;;4.18;2.50;;;;;;;;;;5016840;28;20191;-77
2021/10/25 16:40:24;;;;;;;3.33;2.53;;;;;;;;;;5021507;28;20179;-77
2021/10/25 16:42:50;;;;;;;6.00;3.10;;;;;;;;;;5020058;28;20199;-76